< < Back
Terminal Aerodrome Forecast


Current Version              Previous Versions:   1  2  3  4  5  6  7  8  9  

Terminal Aerodrome Forecast

331
FTUS42 KMLB 230520
TAFMCO
TAF
KMCO 230520Z 2306/2406 04006KT P6SM FEW070 BKN250
     FM231400 05010KT P6SM SCT040
     FM231800 06013KT P6SM SCT040 SCT060
     FM232000 06016G23KT P6SM SCT040 SCT060
     FM240000 07014KT P6SM BKN060
     FM240200 06007KT P6SM BKN060=



Latest METAR

393
SAUS70 KWBC 230700 RRH
MTRMCO
METAR KMCO 230653Z 03006KT 10SM FEW140 SCT300 24/21 A3016 RMK AO2 SLP211
T02390211


USA.gov is the U.S. government's official web portal to all federal, state and local government web resources and services.